createdAt,value
2018-10-17T00:00:44.054Z,37.20
2018-10-17T00:03:48.240Z,39.10
2018-10-17T00:06:52.601Z,38.33
2018-10-17T00:09:57.066Z,39.60
2018-10-17T00:13:01.353Z,38.07
2018-10-17T00:16:05.720Z,41.20
2018-10-17T00:19:10.149Z,39.30
2018-10-17T00:22:14.374Z,38.47
2018-10-17T00:25:18.807Z,38.97
2018-10-17T00:28:23.184Z,40.30
2018-10-17T00:31:27.650Z,37.90
2018-10-17T00:34:38.135Z,40.07
2018-10-17T00:37:42.039Z,38.03
2018-10-17T00:40:46.386Z,38.30
2018-10-17T00:43:50.755Z,39.47
2018-10-17T00:46:55.233Z,35.90
2018-10-17T00:49:59.465Z,39.50
2018-10-17T00:53:03.826Z,37.50
2018-10-17T00:56:08.452Z,38.07
2018-10-17T00:59:13.876Z,38.93
2018-10-17T01:02:19.026Z,37.70
2018-10-17T01:05:23.517Z,34.83
2018-10-17T01:08:28.065Z,38.00
2018-10-17T01:11:32.382Z,39.03
2018-10-17T01:14:36.709Z,39.23
2018-10-17T01:17:41.087Z,37.13
2018-10-17T01:20:44.994Z,37.60
2018-10-17T01:23:49.271Z,37.37
2018-10-17T01:26:53.225Z,36.57
2018-10-17T01:29:57.134Z,37.70
2018-10-17T01:33:01.057Z,39.37
2018-10-17T01:36:05.042Z,36.97
2018-10-17T01:39:10.194Z,35.63
2018-10-17T01:42:14.513Z,35.70
2018-10-17T01:45:18.800Z,35.20
2018-10-17T01:48:23.088Z,37.17
2018-10-17T01:51:27.411Z,34.00
2018-10-17T01:54:31.773Z,35.80
2018-10-17T01:57:37.197Z,34.73
2018-10-17T02:00:41.538Z,33.67
2018-10-17T02:03:46.081Z,37.60
2018-10-17T02:06:50.387Z,35.43
2018-10-17T02:09:54.757Z,38.60
2018-10-17T02:12:59.105Z,37.13
2018-10-17T02:16:03.513Z,35.70
2018-10-17T02:19:07.968Z,34.67
2018-10-17T02:22:12.424Z,35.47
2018-10-17T02:25:16.810Z,36.60
2018-10-17T02:28:20.962Z,35.67
2018-10-17T02:31:25.338Z,36.87
2018-10-17T02:34:29.594Z,39.53
2018-10-17T02:37:33.932Z,39.33
2018-10-17T02:40:38.432Z,37.63
2018-10-17T02:43:42.757Z,35.20
2018-10-17T02:46:47.029Z,36.13
2018-10-17T02:49:51.267Z,34.70
2018-10-17T02:52:55.522Z,32.93
2018-10-17T02:55:59.848Z,30.60
2018-10-17T02:59:04.022Z,32.07
2018-10-17T03:02:08.515Z,28.90
2018-10-17T03:05:12.906Z,31.03
2018-10-17T03:08:17.160Z,29.53
2018-10-17T03:11:21.655Z,29.77
2018-10-17T03:14:25.977Z,30.97
2018-10-17T03:17:31.353Z,28.27
2018-10-17T03:20:35.848Z,28.00
2018-10-17T03:23:40.296Z,27.50
2018-10-17T03:26:44.561Z,28.10
2018-10-17T03:29:48.913Z,27.73
2018-10-17T03:32:53.429Z,27.80
2018-10-17T03:35:57.761Z,26.67
2018-10-17T03:39:01.952Z,25.77
2018-10-17T03:42:06.318Z,27.33
2018-10-17T03:45:10.608Z,27.73
2018-10-17T03:48:14.866Z,25.90
2018-10-17T03:51:19.091Z,24.50
2018-10-17T03:54:23.482Z,24.57
2018-10-17T03:57:27.704Z,25.13
2018-10-17T04:00:31.898Z,26.83
2018-10-17T04:03:36.321Z,25.97
2018-10-17T04:06:40.443Z,22.50
2018-10-17T04:09:45.051Z,25.00
2018-10-17T04:12:49.319Z,23.53
2018-10-17T04:15:53.572Z,24.83
2018-10-17T04:18:57.789Z,26.23
2018-10-17T04:22:02.071Z,24.83
2018-10-17T04:25:06.635Z,28.40
2018-10-17T04:28:10.875Z,35.37
2018-10-17T04:31:15.245Z,34.10
2018-10-17T04:34:19.497Z,36.47
2018-10-17T04:37:23.823Z,36.30
2018-10-17T04:40:28.210Z,37.10
2018-10-17T04:43:32.552Z,36.70
2018-10-17T04:46:36.998Z,36.27
2018-10-17T04:49:41.322Z,37.43
2018-10-17T04:52:45.693Z,38.63
2018-10-17T04:55:49.945Z,38.83
2018-10-17T04:58:54.224Z,42.10
2018-10-17T05:01:58.817Z,39.30
2018-10-17T05:05:02.932Z,37.63
2018-10-17T05:08:07.128Z,41.40
2018-10-17T05:11:11.619Z,40.07
2018-10-17T05:14:15.886Z,36.43
2018-10-17T05:17:20.212Z,31.90
2018-10-17T05:20:24.631Z,31.97
2018-10-17T05:23:29.111Z,37.23
2018-10-17T05:26:33.203Z,32.77
2018-10-17T05:29:37.832Z,29.03
2018-10-17T05:32:42.078Z,30.13
2018-10-17T05:35:46.545Z,28.13
2018-10-17T05:38:50.919Z,27.77
2018-10-17T05:41:55.204Z,27.90
2018-10-17T05:44:59.734Z,29.47
2018-10-17T05:48:03.932Z,27.20
2018-10-17T05:51:08.269Z,29.63
2018-10-17T05:54:12.459Z,29.87
2018-10-17T05:57:16.716Z,30.10
2018-10-17T06:00:21.022Z,28.43
2018-10-17T06:03:25.433Z,27.83
2018-10-17T06:06:29.526Z,27.73
2018-10-17T06:09:33.747Z,27.60
2018-10-17T06:12:37.885Z,27.70
2018-10-17T06:15:42.123Z,25.53
2018-10-17T06:18:46.344Z,24.23
2018-10-17T06:21:50.638Z,23.80
2018-10-17T06:24:55.000Z,22.80
2018-10-17T06:27:59.183Z,23.60
2018-10-17T06:31:03.564Z,22.03
2018-10-17T06:34:07.990Z,24.87
2018-10-17T06:37:12.382Z,22.07
2018-10-17T06:40:16.567Z,23.43
2018-10-17T06:43:20.974Z,23.97
2018-10-17T06:46:25.233Z,21.47
2018-10-17T06:49:29.568Z,22.20
2018-10-17T06:52:33.789Z,21.27
2018-10-17T06:55:38.083Z,20.30
2018-10-17T06:58:42.274Z,19.30
2018-10-17T07:01:46.612Z,18.20
2018-10-17T07:04:50.970Z,16.80
2018-10-17T07:07:55.147Z,17.50
2018-10-17T07:10:59.337Z,17.07
2018-10-17T07:14:03.930Z,18.03
2018-10-17T07:17:08.334Z,17.97
2018-10-17T07:20:12.582Z,17.70
2018-10-17T07:23:16.829Z,18.10
2018-10-17T07:26:21.225Z,17.70
2018-10-17T07:29:25.602Z,19.03
2018-10-17T07:32:29.882Z,19.23
2018-10-17T07:35:34.135Z,19.63
2018-10-17T07:38:38.554Z,18.20
2018-10-17T07:41:42.941Z,17.30
2018-10-17T07:44:47.553Z,19.77
2018-10-17T07:47:51.982Z,17.47
2018-10-17T07:50:56.225Z,17.13
2018-10-17T07:54:00.664Z,17.20
2018-10-17T07:57:05.577Z,16.03
2018-10-17T08:00:12.925Z,16.97
2018-10-17T08:03:17.199Z,17.40
2018-10-17T08:06:21.530Z,15.60
2018-10-17T08:09:25.847Z,15.87
2018-10-17T08:12:30.251Z,17.77
2018-10-17T08:15:34.521Z,16.37
2018-10-17T08:18:38.904Z,17.83
2018-10-17T08:21:43.183Z,17.03
2018-10-17T08:24:47.538Z,16.60
2018-10-17T08:27:51.972Z,17.50
2018-10-17T08:30:56.266Z,26.17
2018-10-17T08:34:00.647Z,29.90
2018-10-17T08:37:05.106Z,35.10
2018-10-17T08:40:09.302Z,35.30
2018-10-17T08:43:13.922Z,35.23
2018-10-17T08:46:18.365Z,35.30
2018-10-17T08:49:23.013Z,33.30
2018-10-17T08:52:27.533Z,34.80
2018-10-17T08:55:31.833Z,37.57
2018-10-17T08:58:36.370Z,33.27
2018-10-17T09:01:40.765Z,34.83
2018-10-17T09:04:45.241Z,36.37
2018-10-17T09:07:49.684Z,32.40
2018-10-17T09:10:53.837Z,34.53
2018-10-17T09:13:58.018Z,34.30
2018-10-17T09:17:02.377Z,32.00
2018-10-17T09:20:07.717Z,32.50
2018-10-17T09:23:11.833Z,33.10
2018-10-17T09:26:16.186Z,30.70
2018-10-17T09:29:20.596Z,33.87
2018-10-17T09:32:24.697Z,33.50
2018-10-17T09:35:29.571Z,32.40
2018-10-17T09:38:33.857Z,33.03
2018-10-17T09:41:38.220Z,32.00
2018-10-17T09:44:42.605Z,33.37
2018-10-17T09:47:46.969Z,34.83
2018-10-17T09:50:51.288Z,32.50
2018-10-17T09:53:56.018Z,32.93
2018-10-17T09:57:00.306Z,32.67
2018-10-17T10:00:05.181Z,34.23
2018-10-17T10:03:09.560Z,32.37
2018-10-17T10:06:14.135Z,32.77
2018-10-17T10:09:18.585Z,30.77
2018-10-17T10:12:23.375Z,32.83
2018-10-17T10:15:27.732Z,32.73
2018-10-17T10:18:31.892Z,33.40
2018-10-17T10:21:36.243Z,33.37
2018-10-17T10:24:40.570Z,32.60
2018-10-17T10:27:44.935Z,33.33
2018-10-17T10:30:49.421Z,31.87
2018-10-17T10:33:53.899Z,32.87
2018-10-17T10:36:58.407Z,34.33
2018-10-17T10:40:02.865Z,35.50
2018-10-17T10:43:07.476Z,34.57
2018-10-17T10:46:11.630Z,34.40
2018-10-17T10:49:16.065Z,37.47
2018-10-17T10:52:20.450Z,33.07
2018-10-17T10:55:24.836Z,32.90
2018-10-17T10:58:29.280Z,32.43
2018-10-17T11:01:33.475Z,31.50
2018-10-17T11:04:37.695Z,31.40
2018-10-17T11:07:48.603Z,30.23
2018-10-17T11:10:53.018Z,31.33
2018-10-17T11:13:57.499Z,31.53
2018-10-17T11:17:01.698Z,31.20
2018-10-17T11:20:06.367Z,30.70
2018-10-17T11:23:11.593Z,30.57
2018-10-17T11:26:16.016Z,31.80
2018-10-17T11:29:20.155Z,30.40
2018-10-17T11:32:24.571Z,31.30
2018-10-17T11:35:28.822Z,30.97
2018-10-17T11:38:33.495Z,31.40
2018-10-17T11:41:37.930Z,30.10
2018-10-17T11:44:42.142Z,29.47
2018-10-17T11:47:46.413Z,29.50
2018-10-17T11:50:50.780Z,31.77
2018-10-17T11:53:55.777Z,29.37
2018-10-17T11:57:00.065Z,30.13
2018-10-17T12:00:04.886Z,30.53
2018-10-17T12:03:09.312Z,28.10
2018-10-17T12:06:13.967Z,30.20
2018-10-17T12:09:18.270Z,31.10
2018-10-17T12:12:22.550Z,29.37
2018-10-17T12:15:27.107Z,30.73
2018-10-17T12:18:31.490Z,27.77
2018-10-17T12:21:35.757Z,29.10
2018-10-17T12:24:39.660Z,29.53
2018-10-17T12:27:45.272Z,25.60
2018-10-17T12:30:49.598Z,25.50
2018-10-17T12:33:54.078Z,26.80
2018-10-17T12:36:58.272Z,29.90
2018-10-17T12:40:02.851Z,27.40
2018-10-17T12:43:07.040Z,26.20
2018-10-17T12:46:11.531Z,28.50
2018-10-17T12:49:15.796Z,27.90
2018-10-17T12:52:20.337Z,29.40
2018-10-17T12:55:24.765Z,30.77
2018-10-17T12:58:29.153Z,29.70
2018-10-17T13:01:33.615Z,29.80
2018-10-17T13:04:38.318Z,30.23
2018-10-17T13:07:42.431Z,31.97
2018-10-17T13:10:46.784Z,32.30
2018-10-17T13:13:50.769Z,32.90
2018-10-17T13:16:54.801Z,32.83
2018-10-17T13:19:58.987Z,31.53
2018-10-17T13:23:03.465Z,30.50
2018-10-17T13:26:08.076Z,32.60
2018-10-17T13:29:12.409Z,31.57
2018-10-17T13:32:16.631Z,33.53
2018-10-17T13:35:20.829Z,33.80
2018-10-17T13:38:25.134Z,32.57
2018-10-17T13:41:30.102Z,32.27
2018-10-17T13:44:35.482Z,33.53
2018-10-17T13:47:39.825Z,32.77
2018-10-17T13:50:44.175Z,31.80
2018-10-17T13:53:48.710Z,32.33
2018-10-17T13:56:52.906Z,33.93
2018-10-17T13:59:57.441Z,32.07
2018-10-17T14:03:01.799Z,31.77
2018-10-17T14:06:06.269Z,31.90
2018-10-17T14:09:11.583Z,32.37
2018-10-17T14:12:15.853Z,33.73
2018-10-17T14:15:20.095Z,32.70
2018-10-17T14:18:24.640Z,32.53
2018-10-17T14:21:29.042Z,30.07
2018-10-17T14:24:34.591Z,33.17
2018-10-17T14:27:38.851Z,33.77
2018-10-17T14:30:43.261Z,33.70
2018-10-17T14:33:54.139Z,31.97
2018-10-17T14:36:58.612Z,34.40
2018-10-17T14:40:02.782Z,34.20
2018-10-17T14:43:07.048Z,35.10
2018-10-17T14:46:11.248Z,36.97
2018-10-17T14:49:15.735Z,32.47
2018-10-17T14:52:19.888Z,34.67
2018-10-17T14:55:24.103Z,32.10
2018-10-17T14:58:28.957Z,35.40
2018-10-17T15:01:33.332Z,32.17
2018-10-17T15:04:37.414Z,32.70
2018-10-17T15:07:42.330Z,34.70
2018-10-17T15:10:46.514Z,32.20
2018-10-17T15:13:50.737Z,34.07
2018-10-17T15:16:55.620Z,30.60
2018-10-17T15:19:59.824Z,32.43
2018-10-17T15:23:04.311Z,30.97
2018-10-17T15:26:08.549Z,32.17
2018-10-17T15:29:12.927Z,31.47
2018-10-17T15:32:17.599Z,31.27
2018-10-17T15:35:21.580Z,32.03
2018-10-17T15:38:25.939Z,30.67
2018-10-17T15:41:30.365Z,31.60
2018-10-17T15:44:34.844Z,30.10
2018-10-17T15:47:39.176Z,32.73
2018-10-17T15:50:43.570Z,34.27
2018-10-17T15:53:47.948Z,34.97
2018-10-17T15:56:52.374Z,32.40
2018-10-17T15:59:57.123Z,35.17
2018-10-17T16:03:01.291Z,32.23
2018-10-17T16:06:05.981Z,32.53
2018-10-17T16:09:11.876Z,32.20
2018-10-17T16:12:16.251Z,31.50
2018-10-17T16:15:20.675Z,32.57
2018-10-17T16:18:24.942Z,33.17
2018-10-17T16:21:29.402Z,35.43
2018-10-17T16:24:33.422Z,33.13
2018-10-17T16:27:37.863Z,35.00
2018-10-17T16:30:42.885Z,35.67
2018-10-17T16:33:46.668Z,36.83
2018-10-17T16:36:50.873Z,34.83
2018-10-17T16:39:55.103Z,36.10
2018-10-17T16:42:59.315Z,36.00
2018-10-17T16:46:03.801Z,35.23
2018-10-17T16:49:07.972Z,38.33
2018-10-17T16:52:12.404Z,35.57
2018-10-17T16:55:16.771Z,34.93
2018-10-17T16:58:21.272Z,35.73
2018-10-17T17:01:25.542Z,34.93
2018-10-17T17:04:30.113Z,36.80
2018-10-17T17:07:34.423Z,37.53
2018-10-17T17:10:38.763Z,39.50
2018-10-17T17:13:43.082Z,40.47
2018-10-17T17:16:47.119Z,36.13
2018-10-17T17:19:51.372Z,35.70
2018-10-17T17:22:55.762Z,35.70
2018-10-17T17:26:00.171Z,33.40
2018-10-17T17:29:04.565Z,36.00
2018-10-17T17:32:08.994Z,37.70
2018-10-17T17:35:13.361Z,39.43
2018-10-17T17:38:17.657Z,39.33
2018-10-17T17:41:22.037Z,37.97
2018-10-17T17:44:26.618Z,40.13
2018-10-17T17:47:30.973Z,36.87
2018-10-17T17:50:35.222Z,38.83
2018-10-17T17:53:39.552Z,36.27
2018-10-17T17:56:44.006Z,37.37
2018-10-17T17:59:48.363Z,38.90
2018-10-17T18:02:52.548Z,36.43
2018-10-17T18:05:56.862Z,37.65
2018-10-17T18:09:01.152Z,38.67
2018-10-17T18:12:05.969Z,38.50
2018-10-17T18:15:10.417Z,38.73
2018-10-17T18:18:15.225Z,38.33
2018-10-17T18:21:19.560Z,40.10
2018-10-17T18:24:24.218Z,39.67
2018-10-17T18:27:28.658Z,40.17
2018-10-17T18:30:33.902Z,42.97
2018-10-17T18:33:38.557Z,41.13
2018-10-17T18:36:42.930Z,41.57
2018-10-17T18:39:47.514Z,42.37
2018-10-17T18:42:51.798Z,43.37
2018-10-17T18:45:56.273Z,42.00
2018-10-17T18:49:00.588Z,41.10
2018-10-17T18:52:05.240Z,41.53
2018-10-17T18:55:09.504Z,39.93
2018-10-17T18:58:14.482Z,43.47
2018-10-17T19:01:18.955Z,43.43
2018-10-17T19:04:23.145Z,41.27
2018-10-17T19:07:27.528Z,40.57
2018-10-17T19:10:31.468Z,43.07
2018-10-17T19:13:35.404Z,41.03
2018-10-17T19:16:46.231Z,45.03
2018-10-17T19:19:50.813Z,42.17
2018-10-17T19:22:55.889Z,42.53
2018-10-17T19:26:00.007Z,42.60
2018-10-17T19:29:04.798Z,43.53
2018-10-17T19:32:09.406Z,42.17
2018-10-17T19:35:13.903Z,38.50
2018-10-17T19:38:18.100Z,38.63
2018-10-17T19:41:22.480Z,38.67
2018-10-17T19:44:27.137Z,39.20
2018-10-17T19:47:31.541Z,37.60
2018-10-17T19:50:36.007Z,33.83
2018-10-17T19:53:40.895Z,35.40
2018-10-17T19:56:45.572Z,34.60
2018-10-17T19:59:50.089Z,31.53
2018-10-17T20:02:54.405Z,31.90
2018-10-17T20:05:58.959Z,34.08
2018-10-17T20:09:03.313Z,33.57
2018-10-17T20:12:07.596Z,31.53
2018-10-17T20:15:12.732Z,31.00
2018-10-17T20:18:17.238Z,32.07
2018-10-17T20:21:21.714Z,34.60
2018-10-17T20:24:27.265Z,30.67
2018-10-17T20:27:31.378Z,31.40
2018-10-17T20:30:35.687Z,30.03
2018-10-17T20:33:39.946Z,28.80
2018-10-17T20:36:44.124Z,29.43
2018-10-17T20:39:48.411Z,29.23
2018-10-17T20:42:52.686Z,27.43
2018-10-17T20:45:58.684Z,27.27
2018-10-17T20:49:03.599Z,24.40
2018-10-17T20:52:07.913Z,26.07
2018-10-17T20:55:12.309Z,26.10
2018-10-17T20:58:16.541Z,27.00
2018-10-17T21:01:20.637Z,26.30
2018-10-17T21:04:24.962Z,28.83
2018-10-17T21:07:29.420Z,28.33
2018-10-17T21:10:33.972Z,29.27
2018-10-17T21:13:38.342Z,28.00
2018-10-17T21:16:43.382Z,28.50
2018-10-17T21:19:47.710Z,27.20
2018-10-17T21:22:52.072Z,27.97
2018-10-17T21:25:56.464Z,28.80
2018-10-17T21:29:01.091Z,29.00
2018-10-17T21:32:05.723Z,28.53
2018-10-17T21:35:10.046Z,28.70
2018-10-17T21:38:14.429Z,29.33
2018-10-17T21:41:18.812Z,29.00
2018-10-17T21:44:23.015Z,30.53
2018-10-17T21:47:27.355Z,31.17
2018-10-17T21:50:31.794Z,33.00
2018-10-17T21:53:36.343Z,31.27
2018-10-17T21:56:40.988Z,30.90
2018-10-17T21:59:51.441Z,30.63
2018-10-17T22:02:55.663Z,31.60
2018-10-17T22:06:00.014Z,31.97
2018-10-17T22:09:05.644Z,32.70
2018-10-17T22:12:09.892Z,31.97
2018-10-17T22:15:14.229Z,31.40
2018-10-17T22:18:18.568Z,28.17
2018-10-17T22:21:22.947Z,28.00
2018-10-17T22:24:27.304Z,27.37
2018-10-17T22:27:31.638Z,28.33
2018-10-17T22:30:35.930Z,26.03
2018-10-17T22:33:40.136Z,27.23
2018-10-17T22:36:44.042Z,25.10
2018-10-17T22:39:47.929Z,25.87
2018-10-17T22:42:52.448Z,28.00
2018-10-17T22:45:56.940Z,30.37
2018-10-17T22:49:01.266Z,31.27
2018-10-17T22:52:05.546Z,34.47
2018-10-17T22:55:09.861Z,36.83
2018-10-17T22:58:14.301Z,39.90
2018-10-17T23:01:18.795Z,42.33
2018-10-17T23:04:23.214Z,39.23
2018-10-17T23:07:27.503Z,34.97
2018-10-17T23:10:31.919Z,32.23
2018-10-17T23:13:36.183Z,30.93
2018-10-17T23:16:41.664Z,31.00
2018-10-17T23:19:46.086Z,28.50
2018-10-17T23:22:50.647Z,28.43
2018-10-17T23:25:55.000Z,28.37
2018-10-17T23:28:59.284Z,25.57
2018-10-17T23:32:03.652Z,27.00
2018-10-17T23:35:08.043Z,27.17
2018-10-17T23:38:12.430Z,27.97
2018-10-17T23:41:16.823Z,27.27
2018-10-17T23:44:21.179Z,27.30
2018-10-17T23:47:25.616Z,28.60
2018-10-17T23:50:29.845Z,28.83
2018-10-17T23:53:34.201Z,28.77
2018-10-17T23:56:38.527Z,27.97
2018-10-17T23:59:42.730Z,27.93
